Terminal Aerodrome Forecast
Issued by NWS Sterling, VA

Home | Current Version | Previous Version | Text Only | Print | Product List | Glossary On
Versions: 1 2 3 4 5 6 7 8 9 10 11 12 13 14 15 16 17 18 19 20 21 22
291
FTUS41 KLWX 081120
TAFBWI
TAF
KBWI 081120Z 0812/0918 36006KT P6SM OVC200
     FM081600 07007KT P6SM OVC040
     FM090000 10007KT 5SM -RASN OVC012
     FM090500 07007KT 1/2SM SN OVC005
     FM091000 36006KT 2SM -SN OVC007=

USA.gov is the U.S. government's official web portal to all federal, state and local government web resources and services.